Time;durP1;ratioP1;P1;durP2;ratioP2;P2;SDS_P1;SDS_P2;PMS_P1;PMS_P2;Temp;Humidity;BMP_temperature;BMP_pressure;BME280_temperature;BME280_humidity;BME280_pressure;Samples;Min_cycle;Max_cycle;Signal;HPM_P1;HPM_P2
2023/01/26 00:01:08;;;;;;;61.53;32.07;;;1.60;99.90;;;;;;5053079;28;20713;-77
2023/01/26 00:03:34;;;;;;;65.17;32.40;;;1.40;99.90;;;;;;5050062;28;20232;-77
2023/01/26 00:06:08;;;;;;;63.70;31.30;;;1.60;99.90;;;;;;5052178;28;20452;-77
2023/01/26 00:08:41;;;;;;;67.63;33.43;;;1.50;99.90;;;;;;5052793;28;20218;-77
2023/01/26 00:11:10;;;;;;;65.20;32.00;;;1.50;99.90;;;;;;5031493;28;20440;-78
2023/01/26 00:13:36;;;;;;;63.17;30.50;;;1.50;99.90;;;;;;5027021;28;20822;-77
2023/01/26 00:16:03;;;;;;;59.20;29.97;;;1.50;99.90;;;;;;5058971;28;20521;-78
2023/01/26 00:18:29;;;;;;;62.40;29.80;;;1.60;99.90;;;;;;5009254;28;20401;-78
2023/01/26 00:20:56;;;;;;;58.97;30.73;;;1.30;99.90;;;;;;5067011;28;20389;-78
2023/01/26 00:23:22;;;;;;;63.33;30.30;;;1.70;99.90;;;;;;5044305;28;20463;-78
2023/01/26 00:25:48;;;;;;;62.73;30.60;;;1.40;99.90;;;;;;5053940;28;20810;-79
2023/01/26 00:28:14;;;;;;;57.67;28.70;;;1.30;99.90;;;;;;5022215;28;20412;-78
2023/01/26 00:30:39;;;;;;;56.83;28.80;;;1.60;99.90;;;;;;5053252;28;20673;-79
2023/01/26 00:33:05;;;;;;;57.00;29.53;;;1.20;99.90;;;;;;5052327;28;20181;-78
2023/01/26 00:35:31;;;;;;;57.57;29.83;;;1.30;99.90;;;;;;5049294;28;20189;-78
2023/01/26 00:37:56;;;;;;;57.37;26.97;;;1.40;99.90;;;;;;5054348;28;20283;-78
2023/01/26 00:40:22;;;;;;;54.10;25.77;;;1.30;99.90;;;;;;5052542;28;20658;-78
2023/01/26 00:42:47;;;;;;;51.50;27.80;;;1.30;99.90;;;;;;5044143;28;20181;-78
2023/01/26 00:45:13;;;;;;;52.47;26.93;;;1.10;99.90;;;;;;5037239;28;20736;-78
2023/01/26 00:47:39;;;;;;;55.60;26.27;;;1.10;99.90;;;;;;5046785;28;20253;-76
2023/01/26 00:50:05;;;;;;;52.00;25.73;;;1.00;99.90;;;;;;5049227;28;20180;-78
2023/01/26 00:52:31;;;;;;;50.57;24.50;;;1.30;99.90;;;;;;5044076;28;20182;-77
2023/01/26 00:54:58;;;;;;;49.80;27.13;;;1.10;99.90;;;;;;5041107;28;20506;-77
2023/01/26 00:57:23;;;;;;;45.67;23.60;;;1.20;99.90;;;;;;5028561;28;20207;-78
2023/01/26 00:59:49;;;;;;;51.60;25.47;;;1.30;99.90;;;;;;5046938;28;21169;-78
2023/01/26 01:02:14;;;;;;;54.27;26.77;;;1.10;99.90;;;;;;5051307;28;20597;-78
2023/01/26 01:04:40;;;;;;;55.37;26.40;;;1.20;99.90;;;;;;5051928;28;20320;-78
2023/01/26 01:07:06;;;;;;;63.17;29.80;;;1.30;99.90;;;;;;5044084;28;20205;-78
2023/01/26 01:09:31;;;;;;;54.53;26.77;;;1.20;99.90;;;;;;5046719;28;20231;-78
2023/01/26 01:11:57;;;;;;;59.20;27.20;;;1.10;99.90;;;;;;5043549;28;20232;-76
2023/01/26 01:14:23;;;;;;;51.73;26.10;;;1.10;99.90;;;;;;5054651;28;20216;-79
2023/01/26 01:16:48;;;;;;;57.57;26.67;;;1.10;99.90;;;;;;5041849;28;20217;-78
2023/01/26 01:19:16;;;;;;;54.50;26.60;;;1.20;99.90;;;;;;5039153;28;20260;-77
2023/01/26 01:21:42;;;;;;;46.63;24.07;;;1.40;99.90;;;;;;5052163;28;20217;-77
2023/01/26 01:24:08;;;;;;;54.03;24.87;;;1.10;99.90;;;;;;5055097;28;20456;-79
2023/01/26 01:26:34;;;;;;;67.83;29.17;;;1.30;99.90;;;;;;5040074;28;20474;-78
2023/01/26 01:29:00;;;;;;;53.53;25.77;;;1.10;99.90;;;;;;5051415;28;20470;-78
2023/01/26 01:31:28;;;;;;;55.17;25.87;;;1.30;99.90;;;;;;5026641;28;20188;-78
2023/01/26 01:33:54;;;;;;;49.03;24.10;;;1.20;99.90;;;;;;5057491;28;20186;-78
2023/01/26 01:36:19;;;;;;;52.07;26.97;;;1.20;99.90;;;;;;5052220;28;20407;-78
2023/01/26 01:38:46;;;;;;;51.90;25.93;;;1.30;99.90;;;;;;5032648;28;20424;-77
2023/01/26 01:41:13;;;;;;;60.97;26.13;;;1.20;99.90;;;;;;5043387;28;20190;-78
2023/01/26 01:43:40;;;;;;;52.03;24.50;;;1.20;99.90;;;;;;5033103;28;20814;-79
2023/01/26 01:46:23;;;;;;;56.40;25.90;;;1.00;99.90;;;;;;5051104;28;20419;-79
2023/01/26 01:49:00;;;;;;;51.70;24.70;;;1.10;99.90;;;;;;5051166;28;20415;-78
2023/01/26 01:52:20;;;;;;;53.57;27.57;;;1.30;99.90;;;;;;5051701;28;20908;-78
2023/01/26 01:55:11;;;;;;;50.33;23.20;;;1.10;99.90;;;;;;4950309;29;20433;-79
2023/01/26 01:57:50;;;;;;;59.40;26.00;;;1.20;99.90;;;;;;4950463;28;20498;-77
2023/01/26 02:00:19;;;;;;;58.80;27.30;;;1.30;99.90;;;;;;5007055;28;20444;-77
2023/01/26 02:03:15;;;;;;;52.60;26.90;;;1.20;99.90;;;;;;5051032;28;20397;-76
2023/01/26 02:05:53;;;;;;;56.40;26.20;;;1.30;99.90;;;;;;5016810;28;20447;-76
2023/01/26 02:08:23;;;;;;;55.53;25.53;;;1.20;99.90;;;;;;5033904;28;20415;-78
2023/01/26 02:10:51;;;;;;;51.10;24.20;;;1.30;99.90;;;;;;5033700;28;20436;-78
2023/01/26 02:13:18;;;;;;;55.67;25.83;;;1.40;99.90;;;;;;5050304;28;20416;-78
2023/01/26 02:15:44;;;;;;;52.33;25.13;;;1.20;99.90;;;;;;5049898;28;20431;-77
2023/01/26 02:18:10;;;;;;;58.27;26.60;;;1.30;99.90;;;;;;5031776;28;20786;-76
2023/01/26 02:20:44;;;;;;;50.30;24.97;;;1.20;99.90;;;;;;5015922;28;20939;-78
2023/01/26 02:23:35;;;;;;;49.63;23.17;;;1.20;99.90;;;;;;5049944;28;20455;-77
2023/01/26 02:26:13;;;;;;;55.67;26.17;;;1.30;99.90;;;;;;5031778;28;20412;-77
2023/01/26 02:28:40;;;;;;;55.00;25.33;;;1.30;99.90;;;;;;5031559;28;20503;-78
2023/01/26 02:31:06;;;;;;;54.07;25.53;;;1.10;99.90;;;;;;5032184;28;20825;-78
2023/01/26 02:33:32;;;;;;;52.03;24.40;;;1.30;99.90;;;;;;5049681;28;20471;-77
2023/01/26 02:35:58;;;;;;;55.77;25.00;;;1.30;99.90;;;;;;5049108;28;20424;-78
2023/01/26 02:38:28;;;;;;;54.97;25.93;;;1.20;99.90;;;;;;5014993;28;20459;-78
2023/01/26 02:41:04;;;;;;;50.87;24.80;;;1.20;99.90;;;;;;5023268;28;20436;-77
2023/01/26 02:43:31;;;;;;;56.47;24.23;;;1.20;99.90;;;;;;5031732;28;20464;-78
2023/01/26 02:45:57;;;;;;;55.30;25.87;;;1.20;99.90;;;;;;5031866;28;20500;-78
2023/01/26 02:51:07;;;;;;;51.07;23.93;;;1.40;99.90;;;;;;5049493;28;20412;-78
2023/01/26 02:53:32;;;;;;;55.07;23.63;;;1.40;99.90;;;;;;5049120;28;20431;-77
2023/01/26 02:55:58;;;;;;;58.27;25.10;;;1.50;99.90;;;;;;5031754;28;20177;-78
2023/01/26 02:58:24;;;;;;;53.17;24.20;;;1.20;99.90;;;;;;5049270;28;20193;-77
2023/01/26 03:00:49;;;;;;;60.70;27.10;;;1.30;99.90;;;;;;5027971;28;20652;-77
2023/01/26 03:03:40;;;;;;;55.07;27.10;;;1.50;99.90;;;;;;5045722;28;20288;-77
2023/01/26 03:06:09;;;;;;;59.10;26.53;;;1.40;99.90;;;;;;5051487;28;20292;-78
2023/01/26 03:08:36;;;;;;;54.63;24.20;;;1.30;99.90;;;;;;5057408;28;20420;-78
2023/01/26 03:11:03;;;;;;;52.90;26.00;;;1.20;99.90;;;;;;5061180;28;20427;-78
2023/01/26 03:13:29;;;;;;;56.97;25.03;;;1.20;99.90;;;;;;5051592;28;20428;-78
2023/01/26 03:15:54;;;;;;;49.77;23.90;;;1.30;99.90;;;;;;5043897;28;20797;-78
2023/01/26 03:29:30;;;;;;;58.63;26.30;;;1.30;99.90;;;;;;5030663;28;20415;-78
2023/01/26 03:31:56;;;;;;;60.63;25.27;;;1.30;99.90;;;;;;5036382;28;20452;-78
2023/01/26 03:34:21;;;;;;;56.50;27.63;;;1.30;99.90;;;;;;5042299;28;20465;-78
2023/01/26 03:36:48;;;;;;;62.03;26.97;;;1.60;99.90;;;;;;5050819;28;20210;-78
2023/01/26 03:41:06;;;;;;;61.20;25.53;;;1.40;99.90;;;;;;5047747;28;20710;-78
2023/01/26 03:58:29;;;;;;;52.60;25.30;;;1.40;99.90;;;;;;5034978;28;20419;-77
2023/01/26 04:00:56;;;;;;;59.43;27.73;;;1.50;99.90;;;;;;5052264;28;20451;-78
2023/01/26 04:08:50;;;;;;;64.10;26.93;;;1.50;99.90;;;;;;5052984;28;20424;-77
2023/01/26 04:11:15;;;;;;;62.23;30.80;;;1.50;99.90;;;;;;5052658;28;20390;-76
2023/01/26 04:21:53;;;;;;;59.00;26.80;;;1.60;99.90;;;;;;5052636;28;20947;-77
2023/01/26 04:24:21;;;;;;;70.20;30.20;;;1.50;99.90;;;;;;5034469;28;20468;-78
2023/01/26 04:26:47;;;;;;;62.80;28.40;;;1.30;99.90;;;;;;5034144;28;20312;-77
2023/01/26 04:29:14;;;;;;;59.97;28.40;;;1.50;99.90;;;;;;5034737;28;20451;-77
2023/01/26 04:31:41;;;;;;;63.77;29.17;;;1.60;99.90;;;;;;5052765;28;20470;-78
2023/01/26 04:34:10;;;;;;;63.47;29.07;;;1.50;99.90;;;;;;5034857;28;20491;-78
2023/01/26 04:36:36;;;;;;;55.70;29.57;;;1.60;99.90;;;;;;5034863;28;20451;-77
2023/01/26 04:39:01;;;;;;;63.93;29.20;;;1.40;99.90;;;;;;5052935;28;20904;-78
2023/01/26 04:41:31;;;;;;;58.93;28.83;;;1.60;99.90;;;;;;5020331;28;20547;-78
2023/01/26 04:43:57;;;;;;;62.30;29.57;;;1.50;99.90;;;;;;5031371;28;20329;-78
2023/01/26 04:46:23;;;;;;;58.33;27.73;;;1.50;99.90;;;;;;4998528;28;20457;-77
2023/01/26 04:48:49;;;;;;;63.53;28.37;;;1.40;99.90;;;;;;5017067;28;20418;-78
2023/01/26 04:51:18;;;;;;;64.80;29.90;;;1.50;99.90;;;;;;5034707;28;20414;-75
2023/01/26 04:53:45;;;;;;;62.03;29.43;;;1.30;99.90;;;;;;5034256;28;20425;-76
2023/01/26 04:56:30;;;;;;;71.77;30.67;;;1.50;99.90;;;;;;5017408;28;21008;-78
2023/01/26 04:58:58;;;;;;;65.90;28.17;;;1.60;99.90;;;;;;5016544;28;20429;-79
2023/01/26 05:01:24;;;;;;;73.00;32.00;;;1.60;99.90;;;;;;5034607;28;20420;-78
2023/01/26 05:03:50;;;;;;;60.17;29.00;;;1.60;99.90;;;;;;5016931;28;20457;-78
2023/01/26 05:06:16;;;;;;;63.93;29.10;;;1.60;99.90;;;;;;5034891;28;20193;-77
2023/01/26 05:08:41;;;;;;;61.53;28.27;;;1.50;99.90;;;;;;5034964;28;20187;-76
2023/01/26 05:11:07;;;;;;;61.63;30.20;;;1.50;99.90;;;;;;5017043;28;20183;-77
2023/01/26 05:13:34;;;;;;;63.37;29.77;;;1.50;99.90;;;;;;5000061;28;20197;-77
2023/01/26 05:16:01;;;;;;;61.93;28.63;;;1.40;99.90;;;;;;5016028;28;20776;-77
2023/01/26 05:18:27;;;;;;;64.40;29.50;;;1.50;99.90;;;;;;5032930;28;20420;-77
2023/01/26 05:20:53;;;;;;;60.63;26.90;;;1.40;99.90;;;;;;5032384;28;20516;-79
2023/01/26 05:23:19;;;;;;;64.63;28.80;;;1.40;99.90;;;;;;5014504;28;20544;-77
2023/01/26 05:25:45;;;;;;;59.40;28.70;;;1.60;99.90;;;;;;5031259;28;20417;-78
2023/01/26 05:28:10;;;;;;;54.93;27.00;;;1.40;99.90;;;;;;4997172;28;20214;-75
2023/01/26 05:30:36;;;;;;;66.17;27.67;;;1.50;99.90;;;;;;5030737;28;20338;-78
2023/01/26 05:33:03;;;;;;;64.40;30.00;;;1.50;99.90;;;;;;5013330;28;20634;-78
2023/01/26 05:35:29;;;;;;;72.50;28.87;;;1.60;99.90;;;;;;5030723;28;20223;-77
2023/01/26 05:37:55;;;;;;;56.47;27.43;;;1.50;99.90;;;;;;5030816;28;20437;-75
2023/01/26 05:40:21;;;;;;;67.87;29.77;;;1.40;99.90;;;;;;5021625;28;20175;-77
2023/01/26 05:42:47;;;;;;;61.57;28.70;;;1.40;99.90;;;;;;5014124;28;20183;-77
2023/01/26 05:45:13;;;;;;;61.23;29.17;;;1.50;99.90;;;;;;5013403;28;20709;-76
2023/01/26 05:47:38;;;;;;;73.13;29.10;;;1.60;99.90;;;;;;5030917;28;20217;-77
2023/01/26 05:50:05;;;;;;;59.00;29.87;;;1.50;99.90;;;;;;5031274;28;20182;-77
2023/01/26 05:52:31;;;;;;;63.63;28.87;;;1.50;99.90;;;;;;5031837;28;20178;-78
2023/01/26 05:54:57;;;;;;;74.27;32.37;;;1.50;99.90;;;;;;5030993;28;20420;-79
2023/01/26 05:57:23;;;;;;;59.53;28.90;;;1.40;99.90;;;;;;5031222;28;20478;-78
2023/01/26 05:59:48;;;;;;;68.60;30.43;;;1.50;99.90;;;;;;5031102;28;20948;-78
2023/01/26 06:02:14;;;;;;;66.83;29.17;;;1.50;99.90;;;;;;5031602;28;20444;-77
2023/01/26 06:04:39;;;;;;;62.93;30.00;;;1.50;99.90;;;;;;5030570;28;20709;-76
2023/01/26 06:07:05;;;;;;;65.87;28.63;;;1.50;99.90;;;;;;5030756;28;20201;-78
2023/01/26 06:09:31;;;;;;;57.67;26.40;;;1.40;99.90;;;;;;5031392;28;20387;-78
2023/01/26 06:11:57;;;;;;;64.33;28.73;;;1.60;99.90;;;;;;5013568;28;20185;-78
2023/01/26 06:14:22;;;;;;;53.50;25.17;;;1.40;99.90;;;;;;5031612;28;20805;-78
2023/01/26 06:16:48;;;;;;;53.63;24.80;;;1.70;99.90;;;;;;5031485;28;20230;-75
2023/01/26 06:19:14;;;;;;;54.47;25.00;;;1.70;99.90;;;;;;5031262;28;20187;-78
2023/01/26 06:21:39;;;;;;;54.63;24.67;;;1.70;99.90;;;;;;5031097;28;20472;-78
2023/01/26 06:24:06;;;;;;;47.83;23.50;;;1.50;99.90;;;;;;5013487;28;20206;-76
2023/01/26 06:26:31;;;;;;;46.37;21.67;;;1.60;99.90;;;;;;5033160;28;20198;-78
2023/01/26 06:28:57;;;;;;;48.10;23.70;;;1.50;99.90;;;;;;5015430;28;20417;-78
2023/01/26 06:31:23;;;;;;;56.57;22.63;;;1.50;99.90;;;;;;5031715;28;20674;-75
2023/01/26 06:33:49;;;;;;;46.73;21.90;;;1.60;99.90;;;;;;5032162;28;20513;-78
2023/01/26 06:36:15;;;;;;;42.60;21.50;;;1.50;99.90;;;;;;5031944;28;20433;-77
2023/01/26 06:38:46;;;;;;;47.87;24.00;;;1.60;99.90;;;;;;5031978;28;20424;-77
2023/01/26 06:41:13;;;;;;;49.73;23.43;;;1.60;99.90;;;;;;5039280;28;20391;-78
2023/01/26 06:43:38;;;;;;;44.50;22.07;;;1.50;99.90;;;;;;5031726;28;20496;-78
2023/01/26 06:46:05;;;;;;;48.90;23.30;;;1.40;99.90;;;;;;5013750;28;20742;-78
2023/01/26 06:48:33;;;;;;;44.13;20.50;;;1.50;99.90;;;;;;5014140;28;20174;-76
2023/01/26 06:51:14;;;;;;;42.90;22.20;;;1.60;99.90;;;;;;5014207;28;20867;-76
2023/01/26 06:53:46;;;;;;;44.43;21.13;;;1.40;99.90;;;;;;5014277;28;20420;-78
2023/01/26 06:56:12;;;;;;;38.20;19.73;;;1.50;99.90;;;;;;5031776;28;20532;-77
2023/01/26 06:58:37;;;;;;;40.60;19.93;;;1.40;99.90;;;;;;5031782;28;20449;-77
2023/01/26 07:01:03;;;;;;;42.07;20.50;;;1.70;99.90;;;;;;5031304;28;20929;-77
2023/01/26 07:03:29;;;;;;;38.57;19.00;;;1.60;99.90;;;;;;5031703;28;20206;-78
2023/01/26 07:05:55;;;;;;;38.27;19.97;;;1.60;99.90;;;;;;5014384;28;20436;-78
2023/01/26 07:08:20;;;;;;;39.53;20.00;;;1.70;99.90;;;;;;5031635;28;20417;-78
2023/01/26 07:10:47;;;;;;;42.60;20.20;;;1.60;99.90;;;;;;5013907;28;20225;-78
2023/01/26 07:13:13;;;;;;;34.67;18.70;;;1.80;99.90;;;;;;4997439;28;20182;-78
2023/01/26 07:15:39;;;;;;;40.33;17.53;;;1.50;99.90;;;;;;5013476;28;20433;-79
2023/01/26 07:18:04;;;;;;;45.50;19.83;;;1.60;99.90;;;;;;5013102;28;20257;-78
2023/01/26 07:20:30;;;;;;;38.60;19.00;;;1.60;99.90;;;;;;5031687;28;20175;-77
2023/01/26 07:22:58;;;;;;;42.20;18.87;;;1.60;99.90;;;;;;5032443;28;20218;-75
2023/01/26 07:25:24;;;;;;;34.33;19.10;;;1.50;99.90;;;;;;5017904;28;20238;-77
2023/01/26 07:27:57;;;;;;;34.83;17.50;;;1.40;99.90;;;;;;5036345;28;20440;-78
2023/01/26 07:30:24;;;;;;;35.83;16.63;;;1.60;99.90;;;;;;5021475;28;20185;-78
2023/01/26 07:32:49;;;;;;;34.87;18.10;;;1.70;99.90;;;;;;5037523;28;20420;-78
2023/01/26 07:35:15;;;;;;;37.50;19.10;;;1.80;99.90;;;;;;5037210;28;20423;-78
2023/01/26 07:37:41;;;;;;;37.30;19.27;;;1.60;99.90;;;;;;5055079;28;20622;-77
2023/01/26 07:40:07;;;;;;;37.73;19.03;;;1.60;99.90;;;;;;5013756;28;20235;-78
2023/01/26 07:42:33;;;;;;;37.63;18.07;;;1.70;99.90;;;;;;5054334;28;20445;-79
2023/01/26 07:44:58;;;;;;;36.10;16.87;;;1.60;99.90;;;;;;5055564;28;20466;-76
2023/01/26 07:47:24;;;;;;;35.67;17.60;;;1.90;99.90;;;;;;5028125;28;20229;-79
2023/01/26 07:49:50;;;;;;;38.80;20.53;;;1.60;99.90;;;;;;5010465;28;20669;-78
2023/01/26 07:52:16;;;;;;;35.80;18.40;;;1.80;99.90;;;;;;5027683;28;21204;-78
2023/01/26 07:54:41;;;;;;;41.10;18.80;;;1.60;99.90;;;;;;5034511;28;20805;-76
2023/01/26 07:57:07;;;;;;;38.60;18.57;;;1.70;99.90;;;;;;5036375;28;20440;-77
2023/01/26 07:59:33;;;;;;;37.50;18.33;;;1.70;99.90;;;;;;5054481;28;20195;-78
2023/01/26 08:01:59;;;;;;;40.47;19.50;;;1.70;99.90;;;;;;5037644;28;20243;-78
2023/01/26 08:04:24;;;;;;;37.40;18.93;;;1.50;99.90;;;;;;5054570;28;20490;-76
2023/01/26 08:06:51;;;;;;;41.93;21.17;;;1.70;99.90;;;;;;5020546;28;20197;-78
2023/01/26 08:09:17;;;;;;;40.03;21.33;;;1.60;99.90;;;;;;5054721;28;20185;-76
2023/01/26 08:11:42;;;;;;;41.97;21.33;;;1.70;99.90;;;;;;5055294;28;20432;-76
2023/01/26 08:14:08;;;;;;;37.63;18.63;;;1.70;99.90;;;;;;5037059;28;20185;-79
2023/01/26 08:16:33;;;;;;;41.30;19.27;;;1.90;99.90;;;;;;5037412;28;20206;-77
2023/01/26 08:18:59;;;;;;;43.07;21.90;;;1.70;99.90;;;;;;5055514;28;20193;-78
2023/01/26 08:21:25;;;;;;;40.47;21.27;;;1.80;99.90;;;;;;5055536;28;20316;-79
2023/01/26 08:23:51;;;;;;;45.23;19.70;;;1.80;99.90;;;;;;5036805;28;20205;-75
2023/01/26 08:26:41;;;;;;;43.90;20.03;;;1.60;99.90;;;;;;5022997;28;20228;-75
2023/01/26 08:29:10;;;;;;;35.30;19.33;;;1.70;99.90;;;;;;5055431;28;20928;-76
2023/01/26 08:31:36;;;;;;;42.67;21.27;;;1.70;99.90;;;;;;5030474;28;20588;-78
2023/01/26 08:34:03;;;;;;;37.23;18.90;;;1.80;99.90;;;;;;5058377;28;20197;-76
2023/01/26 08:36:29;;;;;;;46.07;21.90;;;1.80;99.90;;;;;;5066010;28;20722;-78
2023/01/26 08:38:54;;;;;;;42.93;19.90;;;1.70;99.90;;;;;;5058933;28;20428;-78
2023/01/26 08:41:20;;;;;;;40.43;20.70;;;1.90;99.90;;;;;;5019040;28;20943;-77
2023/01/26 08:43:47;;;;;;;39.77;19.97;;;2.00;99.90;;;;;;5034084;28;20279;-77
2023/01/26 08:46:13;;;;;;;40.00;19.83;;;1.80;99.90;;;;;;5025433;28;20445;-76
2023/01/26 08:48:39;;;;;;;42.13;20.63;;;2.00;99.90;;;;;;5015896;28;20409;-77
2023/01/26 08:51:06;;;;;;;39.80;21.63;;;1.90;99.90;;;;;;5034058;28;20972;-77
2023/01/26 08:53:33;;;;;;;42.60;19.63;;;2.00;99.90;;;;;;5015904;28;20182;-77
2023/01/26 08:56:04;;;;;;;39.37;20.67;;;1.70;99.90;;;;;;5042627;28;20428;-75
2023/01/26 08:58:31;;;;;;;38.57;20.70;;;1.80;99.90;;;;;;5062086;28;20424;-77
2023/01/26 09:00:57;;;;;;;45.00;20.20;;;1.80;99.90;;;;;;5052194;28;20448;-76
2023/01/26 09:03:22;;;;;;;45.60;21.70;;;2.10;99.90;;;;;;5061004;28;20443;-78
2023/01/26 09:05:48;;;;;;;43.07;21.57;;;2.10;99.90;;;;;;5053839;28;20189;-76
2023/01/26 09:08:14;;;;;;;40.73;20.43;;;1.90;99.90;;;;;;5035052;28;20194;-78
2023/01/26 09:10:39;;;;;;;41.60;21.63;;;1.90;99.90;;;;;;5015361;28;20189;-77
2023/01/26 09:13:05;;;;;;;44.53;21.47;;;2.00;99.90;;;;;;5057705;28;20198;-78
2023/01/26 09:15:31;;;;;;;41.30;21.03;;;1.90;99.90;;;;;;5042567;28;20212;-78
2023/01/26 09:17:56;;;;;;;44.40;21.63;;;1.90;99.90;;;;;;5052270;28;20210;-75
2023/01/26 09:20:22;;;;;;;45.93;20.67;;;1.70;99.90;;;;;;5061379;28;20182;-76
2023/01/26 09:22:48;;;;;;;46.00;21.10;;;1.80;99.90;;;;;;5035179;28;20166;-77
2023/01/26 09:25:14;;;;;;;42.90;21.00;;;2.10;99.90;;;;;;5053701;28;20289;-79
2023/01/26 09:27:40;;;;;;;45.70;22.20;;;1.90;99.90;;;;;;5034985;28;20205;-78
2023/01/26 09:30:07;;;;;;;45.90;22.20;;;2.00;99.90;;;;;;5054446;28;20491;-78
2023/01/26 09:32:32;;;;;;;40.17;20.50;;;2.20;99.90;;;;;;5019655;28;20174;-79
2023/01/26 09:34:58;;;;;;;40.10;21.40;;;1.90;99.90;;;;;;5051102;28;20424;-78
2023/01/26 09:37:24;;;;;;;45.17;22.60;;;2.10;99.90;;;;;;5015979;28;20488;-76
2023/01/26 09:39:50;;;;;;;39.80;20.53;;;2.20;99.90;;;;;;5015806;28;20194;-77
2023/01/26 09:42:28;;;;;;;45.93;20.27;;;2.10;99.90;;;;;;5032596;28;21021;-77
2023/01/26 09:45:11;;;;;;;42.10;21.40;;;2.20;99.90;;;;;;5017066;28;20209;-77
2023/01/26 09:47:49;;;;;;;40.80;20.50;;;2.00;99.90;;;;;;5041530;28;20456;-76
2023/01/26 09:50:20;;;;;;;44.10;21.90;;;2.20;99.90;;;;;;5036246;28;20411;-78
2023/01/26 09:52:56;;;;;;;42.07;20.23;;;2.10;99.90;;;;;;5033616;28;20420;-78
2023/01/26 09:55:23;;;;;;;46.40;21.80;;;2.20;99.90;;;;;;5032922;28;20421;-77
2023/01/26 09:58:14;;;;;;;36.00;19.47;;;2.20;99.90;;;;;;5014979;28;20441;-78
2023/01/26 10:00:46;;;;;;;40.53;20.17;;;2.40;99.90;;;;;;5015213;28;20421;-77
2023/01/26 10:03:38;;;;;;;42.73;21.33;;;2.30;99.90;;;;;;5032633;28;20559;-75
2023/01/26 10:06:40;;;;;;;41.73;20.63;;;2.40;99.90;;;;;;5032890;28;20452;-79
2023/01/26 10:09:21;;;;;;;40.70;19.90;;;2.30;99.90;;;;;;4975468;28;20416;-78
2023/01/26 10:12:00;;;;;;;41.43;20.20;;;2.40;99.90;;;;;;5030450;28;20421;-76
2023/01/26 10:14:41;;;;;;;33.50;18.03;;;2.40;99.90;;;;;;5014639;28;20413;-77
2023/01/26 10:17:22;;;;;;;34.30;18.57;;;2.10;99.90;;;;;;5031775;28;20437;-79
2023/01/26 10:19:53;;;;;;;34.30;17.73;;;2.40;99.90;;;;;;5031609;28;20408;-77
2023/01/26 10:22:34;;;;;;;37.10;17.40;;;2.50;99.90;;;;;;5031909;28;20401;-78
2023/01/26 10:25:00;;;;;;;29.27;15.70;;;2.40;99.90;;;;;;5031509;28;20993;-78
2023/01/26 10:27:27;;;;;;;32.70;17.07;;;2.50;99.90;;;;;;5013656;28;20437;-78
2023/01/26 10:29:53;;;;;;;36.87;18.73;;;2.20;99.90;;;;;;5031721;28;20171;-78
2023/01/26 10:32:18;;;;;;;35.03;19.13;;;2.20;99.90;;;;;;5014703;28;20850;-78
2023/01/26 10:34:47;;;;;;;30.70;16.20;;;2.40;99.90;;;;;;5014389;28;20175;-77
2023/01/26 10:37:27;;;;;;;28.17;15.83;;;2.30;99.90;;;;;;5031623;28;20305;-78
2023/01/26 10:39:58;;;;;;;25.87;15.10;;;2.50;99.90;;;;;;5014229;28;20448;-77
2023/01/26 10:42:27;;;;;;;25.47;15.10;;;2.30;99.90;;;;;;4998493;28;20606;-79
2023/01/26 10:44:53;;;;;;;29.30;16.13;;;2.50;99.90;;;;;;5031868;28;20456;-78
2023/01/26 10:47:20;;;;;;;29.93;17.20;;;2.40;99.90;;;;;;5012893;28;20448;-77
2023/01/26 10:49:47;;;;;;;28.47;14.40;;;2.30;99.90;;;;;;5011306;28;20729;-76
2023/01/26 10:52:25;;;;;;;25.60;14.80;;;2.30;99.90;;;;;;5029053;28;20413;-76
2023/01/26 10:55:20;;;;;;;26.67;15.17;;;2.50;99.90;;;;;;5010972;28;20413;-76
2023/01/26 10:57:46;;;;;;;27.50;15.23;;;2.50;99.90;;;;;;5010999;28;20433;-76
2023/01/26 11:00:18;;;;;;;24.30;14.40;;;2.50;99.90;;;;;;5033012;28;20927;-77
2023/01/26 11:02:50;;;;;;;27.03;14.27;;;2.40;99.90;;;;;;5033198;28;20528;-77
2023/01/26 11:05:20;;;;;;;24.50;15.27;;;2.50;99.90;;;;;;5032828;28;20544;-76
2023/01/26 11:07:48;;;;;;;27.50;15.03;;;2.40;99.90;;;;;;5015100;28;20445;-77
2023/01/26 11:10:37;;;;;;;26.17;14.60;;;2.50;99.90;;;;;;5026531;28;20420;-77
2023/01/26 11:13:06;;;;;;;25.67;14.03;;;2.40;99.90;;;;;;5035115;28;20758;-77
2023/01/26 11:15:37;;;;;;;26.73;13.43;;;2.50;99.90;;;;;;5017016;28;20758;-77
2023/01/26 11:18:10;;;;;;;20.93;11.70;;;2.40;99.90;;;;;;5052685;28;20963;-77
2023/01/26 11:20:48;;;;;;;26.83;15.80;;;2.40;99.90;;;;;;5052476;28;20419;-76
2023/01/26 11:23:26;;;;;;;23.40;13.33;;;2.50;99.90;;;;;;5034721;28;20934;-77
2023/01/26 11:26:20;;;;;;;25.00;12.83;;;2.60;99.90;;;;;;5034411;28;20483;-76
2023/01/26 11:28:57;;;;;;;22.57;12.57;;;2.60;99.90;;;;;;5033479;28;20848;-77
2023/01/26 11:31:42;;;;;;;25.77;15.47;;;2.50;99.90;;;;;;5052381;28;20411;-77
2023/01/26 11:34:32;;;;;;;26.33;13.97;;;2.70;99.90;;;;;;5052356;28;20450;-76
2023/01/26 11:36:57;;;;;;;27.73;13.67;;;2.60;99.90;;;;;;5034182;28;20515;-77
2023/01/26 11:39:29;;;;;;;24.90;15.37;;;2.50;99.90;;;;;;5052446;28;20499;-76
2023/01/26 11:42:16;;;;;;;24.30;14.30;;;2.60;99.90;;;;;;5034364;28;20229;-76
2023/01/26 11:44:50;;;;;;;22.30;13.97;;;2.70;99.90;;;;;;5051887;28;21031;-76
2023/01/26 11:47:26;;;;;;;25.10;14.37;;;2.60;99.90;;;;;;5033979;28;20456;-77
2023/01/26 11:50:13;;;;;;;22.27;13.90;;;2.70;99.90;;;;;;5034249;28;20519;-77
2023/01/26 11:52:50;;;;;;;24.33;16.17;;;2.50;99.90;;;;;;5017713;28;20401;-77
2023/01/26 11:56:04;;;;;;;27.20;16.07;;;2.50;99.90;;;;;;5051796;28;20404;-77
2023/01/26 11:58:36;;;;;;;22.17;12.90;;;2.70;99.90;;;;;;5046670;28;20803;-77
2023/01/26 12:01:14;;;;;;;18.80;13.60;;;2.60;99.90;;;;;;5033746;28;20408;-77
2023/01/26 12:03:49;;;;;;;23.43;12.97;;;2.60;99.90;;;;;;5051949;28;20497;-77
2023/01/26 12:06:37;;;;;;;20.20;11.80;;;2.70;99.90;;;;;;5017177;28;20515;-76
2023/01/26 12:09:17;;;;;;;16.47;10.80;;;2.60;99.90;;;;;;5049276;28;20408;-76
2023/01/26 12:12:09;;;;;;;17.53;10.90;;;2.70;99.90;;;;;;5014008;28;20610;-76
2023/01/26 12:15:06;;;;;;;15.90;10.40;;;2.60;99.90;;;;;;5026099;28;20468;-77
2023/01/26 12:17:34;;;;;;;14.03;10.43;;;2.60;99.90;;;;;;5013999;28;20437;-77
2023/01/26 12:20:23;;;;;;;13.13;9.03;;;2.80;99.90;;;;;;5031421;28;20418;-77
2023/01/26 12:22:59;;;;;;;13.53;10.40;;;2.70;99.90;;;;;;5031638;28;20895;-77
2023/01/26 12:25:36;;;;;;;15.90;10.57;;;2.90;99.90;;;;;;5031422;28;20942;-77
2023/01/26 12:28:23;;;;;;;17.23;10.27;;;2.80;99.90;;;;;;5030352;28;20956;-77
2023/01/26 12:30:55;;;;;;;13.17;9.90;;;2.60;99.90;;;;;;5031532;28;20409;-77
2023/01/26 12:33:21;;;;;;;12.30;9.60;;;2.70;99.90;;;;;;5031633;28;20401;-77
2023/01/26 12:36:16;;;;;;;12.27;9.63;;;2.70;99.90;;;;;;4996784;28;20746;-77
2023/01/26 12:39:00;;;;;;;14.83;10.13;;;2.60;99.90;;;;;;5013636;28;20269;-77
2023/01/26 12:41:32;;;;;;;16.80;10.70;;;2.70;99.90;;;;;;5031186;28;20405;-77
2023/01/26 12:44:36;;;;;;;14.63;9.70;;;2.80;99.90;;;;;;5013218;28;20517;-77
2023/01/26 12:47:06;;;;;;;11.20;8.13;;;2.90;99.90;;;;;;5009107;28;20460;-77
2023/01/26 12:49:42;;;;;;;14.47;9.60;;;2.70;99.90;;;;;;5013555;28;20406;-77
2023/01/26 12:52:21;;;;;;;18.73;10.07;;;2.70;99.90;;;;;;5031125;28;20409;-77
2023/01/26 12:55:03;;;;;;;14.03;9.37;;;2.80;99.90;;;;;;5031148;28;20503;-77
2023/01/26 12:57:58;;;;;;;13.17;9.37;;;2.80;99.90;;;;;;5030979;28;20436;-77
2023/01/26 13:00:29;;;;;;;12.90;9.00;;;2.80;99.90;;;;;;5026292;28;20437;-77
2023/01/26 13:03:22;;;;;;;15.20;9.73;;;2.80;99.90;;;;;;5031271;28;21011;-77
2023/01/26 13:05:55;;;;;;;13.40;8.87;;;2.60;99.90;;;;;;5030766;28;20433;-77
2023/01/26 13:08:30;;;;;;;13.43;8.77;;;2.70;99.90;;;;;;5036029;28;20404;-77
2023/01/26 13:11:03;;;;;;;14.67;9.10;;;3.00;99.90;;;;;;5055347;28;20415;-77
2023/01/26 13:13:54;;;;;;;12.83;9.07;;;2.70;99.90;;;;;;5051217;28;20409;-77
2023/01/26 13:16:19;;;;;;;11.57;8.10;;;2.70;99.90;;;;;;5050640;28;20995;-77
2023/01/26 13:18:49;;;;;;;10.83;8.70;;;2.90;99.90;;;;;;5050542;28;20495;-77
2023/01/26 13:21:27;;;;;;;12.37;9.10;;;2.70;99.90;;;;;;5031466;28;20185;-76
2023/01/26 13:23:53;;;;;;;13.60;9.27;;;2.90;99.90;;;;;;5050248;28;20684;-77
2023/01/26 13:26:24;;;;;;;9.47;7.10;;;3.00;99.90;;;;;;5050227;28;20519;-77
2023/01/26 13:28:50;;;;;;;10.40;8.40;;;2.90;99.90;;;;;;5049654;28;20430;-77
2023/01/26 13:31:32;;;;;;;12.27;8.00;;;3.00;99.90;;;;;;5050002;28;20421;-77
2023/01/26 13:34:06;;;;;;;8.90;6.73;;;3.00;99.90;;;;;;5050089;28;20224;-77
2023/01/26 13:36:37;;;;;;;10.90;7.23;;;2.80;99.90;;;;;;5032252;28;20460;-77
2023/01/26 13:39:25;;;;;;;10.37;7.30;;;3.00;99.90;;;;;;5050052;28;20466;-77